createdAt,value
2022-10-26T00:04:50.178Z,5.2
2022-10-26T00:14:27.246Z,5.16
2022-10-26T00:24:03.804Z,5.2
2022-10-26T00:33:40.254Z,4.9
2022-10-26T00:43:16.734Z,4.81
2022-10-26T00:52:53.236Z,4.9
2022-10-26T01:02:30.036Z,4.84
2022-10-26T01:12:06.653Z,4.66
2022-10-26T01:21:43.194Z,4.82
2022-10-26T01:31:20.830Z,5.38
2022-10-26T01:40:57.984Z,5.25
2022-10-26T01:50:34.863Z,5.41
2022-10-26T02:00:12.047Z,6.1
2022-10-26T02:09:48.569Z,5.87
2022-10-26T02:19:25.277Z,5.82
2022-10-26T02:29:02.191Z,5.91
2022-10-26T02:38:59.367Z,6.08
2022-10-26T02:48:26.989Z,6.25
2022-10-26T02:58:04.440Z,6.31
2022-10-26T03:07:40.883Z,6.34
2022-10-26T03:17:17.079Z,6.46
2022-10-26T03:26:55.220Z,6.46
2022-10-26T03:36:31.592Z,6.53
2022-10-26T03:46:08.658Z,6.61
2022-10-26T03:55:45.801Z,6.55
2022-10-26T04:05:22.399Z,6.38
2022-10-26T04:14:59.252Z,6.31
2022-10-26T04:24:36.854Z,6.3
2022-10-26T04:34:13.081Z,6.33
2022-10-26T04:43:50.104Z,6.4
2022-10-26T04:53:26.951Z,6.31
2022-10-26T05:03:03.698Z,6.29
2022-10-26T05:12:40.709Z,6.31
2022-10-26T05:22:16.412Z,6.21
2022-10-26T05:31:53.460Z,6.28
2022-10-26T05:41:30.194Z,6.35
2022-10-26T05:51:06.657Z,6.59
2022-10-26T06:00:43.570Z,6.8
2022-10-26T06:10:20.982Z,6.89
2022-10-26T06:19:57.763Z,6.95
2022-10-26T06:29:34.372Z,6.99
2022-10-26T06:39:11.598Z,7.15
2022-10-26T06:48:49.603Z,7.35
2022-10-26T06:58:27.310Z,7.69
2022-10-26T07:08:05.142Z,7.94
2022-10-26T07:17:42.772Z,8.14
2022-10-26T07:27:19.815Z,8.48
2022-10-26T07:36:57.412Z,9.01
2022-10-26T07:46:34.999Z,9.41
2022-10-26T07:56:12.763Z,9.73
2022-10-26T08:05:52.059Z,10.15
2022-10-26T08:15:30.548Z,10.47
2022-10-26T08:25:08.600Z,11.05
2022-10-26T08:34:46.929Z,11.45
2022-10-26T08:44:25.398Z,12.22
2022-10-26T08:54:03.785Z,12.33
2022-10-26T09:03:41.444Z,13.02
2022-10-26T09:13:18.812Z,13.41
2022-10-26T09:22:55.902Z,13.11
2022-10-26T09:32:33.068Z,12.74
2022-10-26T09:42:10.363Z,12.66
2022-10-26T09:51:47.457Z,12.52
2022-10-26T10:01:24.328Z,12.62
2022-10-26T10:11:01.152Z,12.71
2022-10-26T10:20:38.361Z,12.89
2022-10-26T10:30:15.219Z,13.05
2022-10-26T10:39:52.841Z,13.26
2022-10-26T10:49:30.890Z,13.47
2022-10-26T10:59:08.842Z,14.09
2022-10-26T11:08:45.860Z,13.9
2022-10-26T11:18:23.618Z,14.11
2022-10-26T11:28:01.964Z,14.05
2022-10-26T11:37:38.776Z,13.83
2022-10-26T11:47:15.333Z,13.67
2022-10-26T11:56:52.095Z,13.49
2022-10-26T12:06:29.055Z,13.75
2022-10-26T12:16:05.860Z,13.5
2022-10-26T12:25:42.950Z,13.63
2022-10-26T12:35:20.910Z,13.78
2022-10-26T12:45:02.641Z,14.34
2022-10-26T12:54:53.384Z,15.87
2022-10-26T13:04:31.235Z,15.91
2022-10-26T13:14:19.984Z,16
2022-10-26T13:23:48.692Z,15.86
2022-10-26T13:33:26.673Z,15.97
2022-10-26T13:43:17.573Z,17.26
2022-10-26T13:52:51.913Z,17.92
2022-10-26T14:02:14.951Z,17.11
2022-10-26T14:11:55.027Z,18.54
2022-10-26T14:21:46.587Z,19.11
2022-10-26T14:31:20.356Z,19.75
2022-10-26T14:40:48.173Z,18.81
2022-10-26T14:50:24.405Z,18.1
2022-10-26T14:59:57.422Z,17.6
2022-10-26T15:09:31.297Z,17.06
2022-10-26T15:19:06.144Z,16.29
2022-10-26T15:28:41.245Z,15.45
2022-10-26T15:38:17.123Z,14.79
2022-10-26T15:47:52.679Z,14.32
2022-10-26T15:57:29.060Z,14.03
2022-10-26T16:07:05.401Z,13.66
2022-10-26T16:16:42.064Z,13.32
2022-10-26T16:26:18.882Z,13.18
2022-10-26T16:35:55.356Z,12.8
2022-10-26T16:45:31.928Z,12.4
2022-10-26T16:55:08.789Z,12.24
2022-10-26T17:04:46.250Z,12.04
2022-10-26T17:14:22.501Z,12.09
2022-10-26T17:23:59.517Z,11.92
2022-10-26T17:33:36.146Z,11.64
2022-10-26T17:43:12.778Z,11.51
2022-10-26T17:52:49.470Z,11.37
2022-10-26T18:02:26.485Z,11.38
2022-10-26T18:12:03.188Z,11.13
2022-10-26T18:21:40.203Z,10.84
2022-10-26T18:31:16.954Z,10.91
2022-10-26T18:40:54.202Z,11.05
2022-10-26T18:50:31.676Z,10.96
2022-10-26T19:00:08.389Z,10.67
2022-10-26T19:09:45.000Z,10.78
2022-10-26T19:19:22.001Z,11.29
2022-10-26T19:28:59.288Z,10.95
2022-10-26T19:38:36.178Z,10.55
2022-10-26T19:48:12.819Z,10.37
2022-10-26T19:57:49.747Z,10.41
2022-10-26T20:07:26.672Z,10.67
2022-10-26T20:17:04.050Z,10.66
2022-10-26T20:26:41.084Z,10.16
2022-10-26T20:36:18.275Z,9.98
2022-10-26T20:45:54.535Z,9.8
2022-10-26T20:55:31.336Z,9.71
2022-10-26T21:05:08.386Z,9.73
2022-10-26T21:14:45.614Z,9.83
2022-10-26T21:24:22.835Z,9.73
2022-10-26T21:33:59.224Z,9.46
2022-10-26T21:43:36.103Z,9.19
2022-10-26T21:53:13.045Z,9.15
2022-10-26T22:02:50.242Z,9.58
2022-10-26T22:12:27.014Z,9.27
2022-10-26T22:22:03.824Z,9.01
2022-10-26T22:31:40.594Z,8.87
2022-10-26T22:41:17.499Z,8.72
2022-10-26T22:50:54.090Z,8.63
2022-10-26T23:00:30.851Z,8.71
2022-10-26T23:10:07.611Z,8.59
2022-10-26T23:19:44.981Z,8.63
2022-10-26T23:29:22.003Z,8.37
2022-10-26T23:38:58.684Z,8.27
2022-10-26T23:48:35.972Z,8.19
2022-10-26T23:58:12.817Z,8.05
